sensor_id;sensor_type;location;lat;lon;timestamp;P1;durP1;ratioP1;P2;durP2;ratioP2
58015;SDS011;43809;52.110;20.964;2023-09-18T00:00:47;4.82;;;4.32;;
58015;SDS011;43809;52.110;20.964;2023-09-18T00:02:52;4.28;;;3.58;;
58015;SDS011;43809;52.110;20.964;2023-09-18T00:04:53;3.30;;;3.00;;
58015;SDS011;43809;52.110;20.964;2023-09-18T00:06:53;2.65;;;2.45;;
58015;SDS011;43809;52.110;20.964;2023-09-18T00:08:54;2.47;;;2.28;;
58015;SDS011;43809;52.110;20.964;2023-09-18T00:10:55;2.20;;;2.00;;
58015;SDS011;43809;52.110;20.964;2023-09-18T00:15:33;3.38;;;3.08;;
58015;SDS011;43809;52.110;20.964;2023-09-18T00:17:34;3.13;;;2.83;;
58015;SDS011;43809;52.110;20.964;2023-09-18T00:19:35;2.70;;;2.50;;
58015;SDS011;43809;52.110;20.964;2023-09-18T00:21:35;2.95;;;2.50;;
58015;SDS011;43809;52.110;20.964;2023-09-18T00:23:37;2.60;;;2.00;;
58015;SDS011;43809;52.110;20.964;2023-09-18T00:25:38;2.07;;;1.87;;
58015;SDS011;43809;52.110;20.964;2023-09-18T00:27:41;5.47;;;3.15;;
58015;SDS011;43809;52.110;20.964;2023-09-18T00:29:43;4.32;;;3.90;;
58015;SDS011;43809;52.110;20.964;2023-09-18T00:31:45;3.28;;;2.97;;
58015;SDS011;43809;52.110;20.964;2023-09-18T00:33:46;3.10;;;2.63;;
58015;SDS011;43809;52.110;20.964;2023-09-18T00:35:50;3.78;;;3.38;;
58015;SDS011;43809;52.110;20.964;2023-09-18T00:38:02;3.15;;;2.83;;
58015;SDS011;43809;52.110;20.964;2023-09-18T00:40:04;5.70;;;4.68;;
58015;SDS011;43809;52.110;20.964;2023-09-18T00:42:05;5.82;;;5.07;;
58015;SDS011;43809;52.110;20.964;2023-09-18T00:44:06;5.65;;;5.15;;
58015;SDS011;43809;52.110;20.964;2023-09-18T00:46:07;5.18;;;4.50;;
58015;SDS011;43809;52.110;20.964;2023-09-18T00:48:08;5.32;;;4.13;;
58015;SDS011;43809;52.110;20.964;2023-09-18T00:53:38;3.30;;;2.60;;
58015;SDS011;43809;52.110;20.964;2023-09-18T00:55:38;2.50;;;2.25;;
58015;SDS011;43809;52.110;20.964;2023-09-18T00:57:39;2.20;;;2.00;;
58015;SDS011;43809;52.110;20.964;2023-09-18T00:59:40;1.98;;;1.80;;
58015;SDS011;43809;52.110;20.964;2023-09-18T01:01:41;2.38;;;2.05;;
58015;SDS011;43809;52.110;20.964;2023-09-18T01:03:42;2.20;;;2.00;;
58015;SDS011;43809;52.110;20.964;2023-09-18T01:05:43;2.42;;;2.22;;
58015;SDS011;43809;52.110;20.964;2023-09-18T01:07:44;7.45;;;6.20;;
58015;SDS011;43809;52.110;20.964;2023-09-18T01:09:45;6.88;;;5.85;;
58015;SDS011;43809;52.110;20.964;2023-09-18T01:12:01;4.55;;;4.15;;
58015;SDS011;43809;52.110;20.964;2023-09-18T01:14:16;4.35;;;3.70;;
58015;SDS011;43809;52.110;20.964;2023-09-18T01:16:20;4.78;;;3.63;;
58015;SDS011;43809;52.110;20.964;2023-09-18T01:18:24;3.90;;;3.50;;
58015;SDS011;43809;52.110;20.964;2023-09-18T01:22:54;3.40;;;3.03;;
58015;SDS011;43809;52.110;20.964;2023-09-18T01:24:55;3.70;;;3.35;;
58015;SDS011;43809;52.110;20.964;2023-09-18T01:26:55;3.38;;;2.90;;
58015;SDS011;43809;52.110;20.964;2023-09-18T01:28:56;3.97;;;3.58;;
58015;SDS011;43809;52.110;20.964;2023-09-18T01:30:57;3.97;;;3.20;;
58015;SDS011;43809;52.110;20.964;2023-09-18T01:32:57;5.20;;;4.20;;
58015;SDS011;43809;52.110;20.964;2023-09-18T01:35:00;4.83;;;4.20;;
58015;SDS011;43809;52.110;20.964;2023-09-18T01:37:02;7.28;;;6.07;;
58015;SDS011;43809;52.110;20.964;2023-09-18T01:39:03;5.90;;;4.88;;
58015;SDS011;43809;52.110;20.964;2023-09-18T01:41:05;5.57;;;4.35;;
58015;SDS011;43809;52.110;20.964;2023-09-18T01:43:06;7.07;;;6.38;;
58015;SDS011;43809;52.110;20.964;2023-09-18T01:45:07;6.75;;;5.97;;
58015;SDS011;43809;52.110;20.964;2023-09-18T01:47:09;7.95;;;6.78;;
58015;SDS011;43809;52.110;20.964;2023-09-18T01:49:10;6.07;;;5.35;;
58015;SDS011;43809;52.110;20.964;2023-09-18T01:51:13;5.10;;;4.45;;
58015;SDS011;43809;52.110;20.964;2023-09-18T01:53:14;5.45;;;4.65;;
58015;SDS011;43809;52.110;20.964;2023-09-18T01:55:15;3.70;;;3.40;;
58015;SDS011;43809;52.110;20.964;2023-09-18T01:57:16;5.65;;;4.45;;
58015;SDS011;43809;52.110;20.964;2023-09-18T01:59:17;5.35;;;4.85;;
58015;SDS011;43809;52.110;20.964;2023-09-18T02:01:20;5.13;;;4.55;;
58015;SDS011;43809;52.110;20.964;2023-09-18T02:03:21;6.18;;;5.57;;
58015;SDS011;43809;52.110;20.964;2023-09-18T02:07:33;5.68;;;4.90;;
58015;SDS011;43809;52.110;20.964;2023-09-18T02:09:34;5.38;;;4.65;;
58015;SDS011;43809;52.110;20.964;2023-09-18T02:11:39;4.90;;;4.40;;
58015;SDS011;43809;52.110;20.964;2023-09-18T02:13:41;5.35;;;4.50;;
58015;SDS011;43809;52.110;20.964;2023-09-18T02:15:43;4.72;;;4.10;;
58015;SDS011;43809;52.110;20.964;2023-09-18T02:17:43;4.80;;;4.30;;
58015;SDS011;43809;52.110;20.964;2023-09-18T02:19:44;6.05;;;5.20;;
58015;SDS011;43809;52.110;20.964;2023-09-18T02:21:45;5.25;;;4.60;;
58015;SDS011;43809;52.110;20.964;2023-09-18T02:23:48;7.05;;;5.75;;
58015;SDS011;43809;52.110;20.964;2023-09-18T02:25:56;7.07;;;6.38;;
58015;SDS011;43809;52.110;20.964;2023-09-18T02:27:56;9.15;;;7.93;;
58015;SDS011;43809;52.110;20.964;2023-09-18T02:33:09;8.45;;;7.35;;
58015;SDS011;43809;52.110;20.964;2023-09-18T02:37:11;7.97;;;7.18;;
58015;SDS011;43809;52.110;20.964;2023-09-18T02:39:12;7.95;;;6.50;;
58015;SDS011;43809;52.110;20.964;2023-09-18T02:41:12;9.30;;;7.50;;
58015;SDS011;43809;52.110;20.964;2023-09-18T02:43:13;9.18;;;7.10;;
58015;SDS011;43809;52.110;20.964;2023-09-18T02:45:14;9.07;;;7.55;;
58015;SDS011;43809;52.110;20.964;2023-09-18T02:47:15;9.95;;;7.13;;
58015;SDS011;43809;52.110;20.964;2023-09-18T02:49:15;8.57;;;7.30;;
58015;SDS011;43809;52.110;20.964;2023-09-18T02:51:16;10.65;;;8.70;;
58015;SDS011;43809;52.110;20.964;2023-09-18T02:53:18;8.35;;;7.55;;
58015;SDS011;43809;52.110;20.964;2023-09-18T02:57:22;10.32;;;8.32;;
58015;SDS011;43809;52.110;20.964;2023-09-18T02:59:23;8.32;;;6.80;;
58015;SDS011;43809;52.110;20.964;2023-09-18T03:01:23;8.00;;;6.90;;
58015;SDS011;43809;52.110;20.964;2023-09-18T03:06:03;10.07;;;8.43;;
58015;SDS011;43809;52.110;20.964;2023-09-18T03:08:04;9.20;;;7.40;;
58015;SDS011;43809;52.110;20.964;2023-09-18T03:10:10;9.10;;;7.18;;
58015;SDS011;43809;52.110;20.964;2023-09-18T03:12:14;8.88;;;7.68;;
58015;SDS011;43809;52.110;20.964;2023-09-18T03:14:15;11.43;;;7.75;;
58015;SDS011;43809;52.110;20.964;2023-09-18T03:16:15;8.18;;;7.30;;
58015;SDS011;43809;52.110;20.964;2023-09-18T03:18:17;11.10;;;8.73;;
58015;SDS011;43809;52.110;20.964;2023-09-18T03:23:33;9.32;;;7.40;;
58015;SDS011;43809;52.110;20.964;2023-09-18T03:25:34;11.60;;;9.48;;
58015;SDS011;43809;52.110;20.964;2023-09-18T03:27:35;10.02;;;8.82;;
58015;SDS011;43809;52.110;20.964;2023-09-18T03:29:36;12.02;;;9.10;;
58015;SDS011;43809;52.110;20.964;2023-09-18T03:31:37;10.27;;;8.25;;
58015;SDS011;43809;52.110;20.964;2023-09-18T03:33:38;10.52;;;9.40;;
58015;SDS011;43809;52.110;20.964;2023-09-18T03:35:45;12.40;;;9.77;;
58015;SDS011;43809;52.110;20.964;2023-09-18T03:37:48;10.43;;;9.07;;
58015;SDS011;43809;52.110;20.964;2023-09-18T03:39:49;11.65;;;9.40;;
58015;SDS011;43809;52.110;20.964;2023-09-18T03:41:51;11.10;;;8.95;;
58015;SDS011;43809;52.110;20.964;2023-09-18T03:43:51;11.25;;;9.38;;
58015;SDS011;43809;52.110;20.964;2023-09-18T03:45:52;8.90;;;7.63;;
58015;SDS011;43809;52.110;20.964;2023-09-18T03:47:53;10.30;;;8.90;;
58015;SDS011;43809;52.110;20.964;2023-09-18T03:49:54;12.15;;;10.00;;
58015;SDS011;43809;52.110;20.964;2023-09-18T03:51:55;10.27;;;9.02;;
58015;SDS011;43809;52.110;20.964;2023-09-18T03:53:56;11.57;;;9.65;;
58015;SDS011;43809;52.110;20.964;2023-09-18T03:55:56;11.43;;;8.98;;
58015;SDS011;43809;52.110;20.964;2023-09-18T03:57:57;11.63;;;9.75;;
58015;SDS011;43809;52.110;20.964;2023-09-18T04:02:25;13.32;;;9.80;;
58015;SDS011;43809;52.110;20.964;2023-09-18T04:04:26;12.50;;;10.23;;
58015;SDS011;43809;52.110;20.964;2023-09-18T04:06:39;13.93;;;10.18;;
58015;SDS011;43809;52.110;20.964;2023-09-18T04:11:20;10.63;;;8.75;;
58015;SDS011;43809;52.110;20.964;2023-09-18T04:13:25;11.05;;;9.35;;
58015;SDS011;43809;52.110;20.964;2023-09-18T04:15:27;11.27;;;9.27;;
58015;SDS011;43809;52.110;20.964;2023-09-18T04:19:54;12.73;;;10.30;;
58015;SDS011;43809;52.110;20.964;2023-09-18T04:21:55;12.50;;;10.13;;
58015;SDS011;43809;52.110;20.964;2023-09-18T04:23:58;13.48;;;10.40;;
58015;SDS011;43809;52.110;20.964;2023-09-18T04:26:00;12.52;;;10.82;;
58015;SDS011;43809;52.110;20.964;2023-09-18T04:28:04;11.63;;;9.65;;
58015;SDS011;43809;52.110;20.964;2023-09-18T04:30:05;13.35;;;11.05;;
58015;SDS011;43809;52.110;20.964;2023-09-18T04:32:06;11.48;;;10.15;;
58015;SDS011;43809;52.110;20.964;2023-09-18T04:34:07;13.70;;;10.35;;
58015;SDS011;43809;52.110;20.964;2023-09-18T04:36:08;11.05;;;9.43;;
58015;SDS011;43809;52.110;20.964;2023-09-18T04:38:09;12.07;;;9.98;;
58015;SDS011;43809;52.110;20.964;2023-09-18T04:40:13;10.55;;;9.20;;
58015;SDS011;43809;52.110;20.964;2023-09-18T04:42:15;12.98;;;10.13;;
58015;SDS011;43809;52.110;20.964;2023-09-18T04:44:16;13.30;;;9.98;;
58015;SDS011;43809;52.110;20.964;2023-09-18T04:46:18;12.07;;;10.77;;
58015;SDS011;43809;52.110;20.964;2023-09-18T04:48:19;12.60;;;8.83;;
58015;SDS011;43809;52.110;20.964;2023-09-18T04:50:20;10.82;;;9.10;;
58015;SDS011;43809;52.110;20.964;2023-09-18T04:52:21;12.75;;;10.13;;
58015;SDS011;43809;52.110;20.964;2023-09-18T04:54:21;11.18;;;9.07;;
58015;SDS011;43809;52.110;20.964;2023-09-18T04:56:22;10.18;;;8.95;;
58015;SDS011;43809;52.110;20.964;2023-09-18T04:58:23;11.90;;;9.70;;
58015;SDS011;43809;52.110;20.964;2023-09-18T05:02:35;10.63;;;8.55;;
58015;SDS011;43809;52.110;20.964;2023-09-18T05:04:35;12.70;;;10.57;;
58015;SDS011;43809;52.110;20.964;2023-09-18T05:06:36;13.02;;;10.10;;
58015;SDS011;43809;52.110;20.964;2023-09-18T05:08:39;12.07;;;10.10;;
58015;SDS011;43809;52.110;20.964;2023-09-18T05:10:40;12.15;;;10.82;;
58015;SDS011;43809;52.110;20.964;2023-09-18T05:12:51;12.30;;;10.13;;
58015;SDS011;43809;52.110;20.964;2023-09-18T05:14:58;15.27;;;10.82;;
58015;SDS011;43809;52.110;20.964;2023-09-18T05:16:59;13.25;;;10.80;;
58015;SDS011;43809;52.110;20.964;2023-09-18T05:19:00;15.02;;;11.48;;
58015;SDS011;43809;52.110;20.964;2023-09-18T05:23:25;13.77;;;11.25;;
58015;SDS011;43809;52.110;20.964;2023-09-18T05:25:27;13.40;;;10.32;;
58015;SDS011;43809;52.110;20.964;2023-09-18T05:27:32;12.77;;;11.07;;
58015;SDS011;43809;52.110;20.964;2023-09-18T05:29:33;13.70;;;10.98;;
58015;SDS011;43809;52.110;20.964;2023-09-18T05:33:36;15.07;;;11.48;;
58015;SDS011;43809;52.110;20.964;2023-09-18T05:35:41;12.48;;;10.88;;
58015;SDS011;43809;52.110;20.964;2023-09-18T05:37:49;13.80;;;11.38;;
58015;SDS011;43809;52.110;20.964;2023-09-18T05:39:49;15.80;;;11.75;;
58015;SDS011;43809;52.110;20.964;2023-09-18T05:41:50;16.63;;;12.05;;
58015;SDS011;43809;52.110;20.964;2023-09-18T05:43:51;13.23;;;11.20;;
58015;SDS011;43809;52.110;20.964;2023-09-18T05:45:52;13.93;;;11.00;;
58015;SDS011;43809;52.110;20.964;2023-09-18T05:47:53;15.40;;;12.50;;
58015;SDS011;43809;52.110;20.964;2023-09-18T05:49:54;17.27;;;11.88;;
58015;SDS011;43809;52.110;20.964;2023-09-18T05:51:55;14.50;;;11.50;;
58015;SDS011;43809;52.110;20.964;2023-09-18T05:53:55;16.85;;;11.95;;
58015;SDS011;43809;52.110;20.964;2023-09-18T05:55:56;18.15;;;12.38;;
58015;SDS011;43809;52.110;20.964;2023-09-18T05:58:04;14.85;;;10.88;;
58015;SDS011;43809;52.110;20.964;2023-09-18T06:00:18;15.13;;;11.57;;
58015;SDS011;43809;52.110;20.964;2023-09-18T06:02:19;14.48;;;11.00;;
58015;SDS011;43809;52.110;20.964;2023-09-18T06:04:21;14.05;;;11.70;;
58015;SDS011;43809;52.110;20.964;2023-09-18T06:06:22;13.13;;;10.55;;
58015;SDS011;43809;52.110;20.964;2023-09-18T06:08:35;12.95;;;10.85;;
58015;SDS011;43809;52.110;20.964;2023-09-18T06:10:35;15.73;;;11.27;;
58015;SDS011;43809;52.110;20.964;2023-09-18T06:12:39;12.70;;;10.45;;
58015;SDS011;43809;52.110;20.964;2023-09-18T06:14:40;11.95;;;9.65;;
58015;SDS011;43809;52.110;20.964;2023-09-18T06:16:41;10.77;;;9.68;;
58015;SDS011;43809;52.110;20.964;2023-09-18T06:18:42;11.32;;;9.63;;
58015;SDS011;43809;52.110;20.964;2023-09-18T06:20:52;11.15;;;9.52;;
58015;SDS011;43809;52.110;20.964;2023-09-18T06:22:53;11.18;;;9.98;;
58015;SDS011;43809;52.110;20.964;2023-09-18T06:24:54;10.95;;;8.80;;
58015;SDS011;43809;52.110;20.964;2023-09-18T06:26:55;11.13;;;9.98;;
58015;SDS011;43809;52.110;20.964;2023-09-18T06:28:55;10.07;;;8.90;;
58015;SDS011;43809;52.110;20.964;2023-09-18T06:30:56;9.40;;;8.50;;
58015;SDS011;43809;52.110;20.964;2023-09-18T06:32:57;8.20;;;7.20;;
58015;SDS011;43809;52.110;20.964;2023-09-18T06:34:58;8.40;;;7.47;;
58015;SDS011;43809;52.110;20.964;2023-09-18T06:36:58;6.97;;;6.28;;
58015;SDS011;43809;52.110;20.964;2023-09-18T06:38:59;9.35;;;8.45;;
58015;SDS011;43809;52.110;20.964;2023-09-18T06:41:10;9.35;;;8.20;;
58015;SDS011;43809;52.110;20.964;2023-09-18T06:43:10;10.25;;;8.45;;
58015;SDS011;43809;52.110;20.964;2023-09-18T06:45:11;8.93;;;8.02;;
58015;SDS011;43809;52.110;20.964;2023-09-18T06:47:13;9.55;;;8.30;;
58015;SDS011;43809;52.110;20.964;2023-09-18T06:49:15;8.23;;;7.47;;
58015;SDS011;43809;52.110;20.964;2023-09-18T06:51:15;10.00;;;9.00;;
58015;SDS011;43809;52.110;20.964;2023-09-18T06:53:16;8.57;;;7.30;;
58015;SDS011;43809;52.110;20.964;2023-09-18T06:55:17;9.32;;;8.32;;
58015;SDS011;43809;52.110;20.964;2023-09-18T06:57:18;9.73;;;8.57;;
58015;SDS011;43809;52.110;20.964;2023-09-18T06:59:18;8.93;;;8.07;;
58015;SDS011;43809;52.110;20.964;2023-09-18T07:01:29;8.25;;;7.45;;
58015;SDS011;43809;52.110;20.964;2023-09-18T07:03:32;8.90;;;8.00;;
58015;SDS011;43809;52.110;20.964;2023-09-18T07:05:35;10.40;;;9.40;;
58015;SDS011;43809;52.110;20.964;2023-09-18T07:07:35;11.30;;;10.10;;
58015;SDS011;43809;52.110;20.964;2023-09-18T07:09:36;9.90;;;8.90;;
58015;SDS011;43809;52.110;20.964;2023-09-18T07:11:37;12.50;;;9.02;;
58015;SDS011;43809;52.110;20.964;2023-09-18T07:13:38;11.45;;;9.15;;
58015;SDS011;43809;52.110;20.964;2023-09-18T07:15:40;10.43;;;9.32;;
58015;SDS011;43809;52.110;20.964;2023-09-18T07:17:42;12.85;;;9.73;;
58015;SDS011;43809;52.110;20.964;2023-09-18T07:19:43;10.77;;;9.55;;
58015;SDS011;43809;52.110;20.964;2023-09-18T07:21:43;9.93;;;8.90;;
58015;SDS011;43809;52.110;20.964;2023-09-18T07:24:00;9.18;;;8.30;;
58015;SDS011;43809;52.110;20.964;2023-09-18T07:26:01;11.07;;;9.52;;
58015;SDS011;43809;52.110;20.964;2023-09-18T07:28:02;10.85;;;9.75;;
58015;SDS011;43809;52.110;20.964;2023-09-18T07:32:29;11.20;;;10.00;;
58015;SDS011;43809;52.110;20.964;2023-09-18T07:34:31;10.63;;;9.50;;
58015;SDS011;43809;52.110;20.964;2023-09-18T07:36:31;11.52;;;10.32;;
58015;SDS011;43809;52.110;20.964;2023-09-18T07:38:32;11.43;;;9.70;;
58015;SDS011;43809;52.110;20.964;2023-09-18T07:40:33;10.98;;;9.88;;
58015;SDS011;43809;52.110;20.964;2023-09-18T07:42:34;10.88;;;9.77;;
58015;SDS011;43809;52.110;20.964;2023-09-18T07:44:35;11.48;;;10.35;;
58015;SDS011;43809;52.110;20.964;2023-09-18T07:46:36;11.07;;;9.98;;
58015;SDS011;43809;52.110;20.964;2023-09-18T07:48:36;11.18;;;9.95;;
58015;SDS011;43809;52.110;20.964;2023-09-18T07:50:39;11.90;;;10.13;;
58015;SDS011;43809;52.110;20.964;2023-09-18T07:54:57;10.52;;;9.43;;
58015;SDS011;43809;52.110;20.964;2023-09-18T07:56:58;12.20;;;9.90;;
58015;SDS011;43809;52.110;20.964;2023-09-18T07:59:01;11.10;;;10.00;;
58015;SDS011;43809;52.110;20.964;2023-09-18T08:01:03;11.18;;;9.75;;
58015;SDS011;43809;52.110;20.964;2023-09-18T08:03:06;9.88;;;8.88;;
58015;SDS011;43809;52.110;20.964;2023-09-18T08:05:07;10.57;;;9.48;;
58015;SDS011;43809;52.110;20.964;2023-09-18T08:07:09;11.02;;;9.82;;
58015;SDS011;43809;52.110;20.964;2023-09-18T08:09:09;10.85;;;9.75;;
58015;SDS011;43809;52.110;20.964;2023-09-18T08:11:13;10.63;;;9.25;;
58015;SDS011;43809;52.110;20.964;2023-09-18T08:13:14;10.48;;;9.48;;
58015;SDS011;43809;52.110;20.964;2023-09-18T08:15:24;9.68;;;8.77;;
58015;SDS011;43809;52.110;20.964;2023-09-18T08:17:31;10.18;;;9.18;;
58015;SDS011;43809;52.110;20.964;2023-09-18T08:19:43;9.30;;;8.45;;
58015;SDS011;43809;52.110;20.964;2023-09-18T08:22:25;10.27;;;9.27;;
58015;SDS011;43809;52.110;20.964;2023-09-18T08:24:29;9.53;;;8.63;;
58015;SDS011;43809;52.110;20.964;2023-09-18T08:26:30;10.73;;;9.52;;
58015;SDS011;43809;52.110;20.964;2023-09-18T08:28:30;9.80;;;8.85;;
58015;SDS011;43809;52.110;20.964;2023-09-18T08:30:31;9.43;;;8.52;;
58015;SDS011;43809;52.110;20.964;2023-09-18T08:35:05;9.68;;;8.77;;
58015;SDS011;43809;52.110;20.964;2023-09-18T08:37:09;11.18;;;10.00;;
58015;SDS011;43809;52.110;20.964;2023-09-18T08:39:09;8.65;;;7.80;;
58015;SDS011;43809;52.110;20.964;2023-09-18T08:41:11;9.55;;;8.63;;
58015;SDS011;43809;52.110;20.964;2023-09-18T08:43:13;9.50;;;8.57;;
58015;SDS011;43809;52.110;20.964;2023-09-18T08:45:17;9.98;;;8.98;;
58015;SDS011;43809;52.110;20.964;2023-09-18T08:47:19;9.57;;;8.57;;
58015;SDS011;43809;52.110;20.964;2023-09-18T08:49:21;9.10;;;8.10;;
58015;SDS011;43809;52.110;20.964;2023-09-18T08:51:23;9.00;;;8.10;;
58015;SDS011;43809;52.110;20.964;2023-09-18T08:53:24;9.63;;;8.63;;
58015;SDS011;43809;52.110;20.964;2023-09-18T08:55:26;9.00;;;8.20;;
58015;SDS011;43809;52.110;20.964;2023-09-18T08:57:26;10.00;;;8.50;;
58015;SDS011;43809;52.110;20.964;2023-09-18T08:59:31;8.67;;;7.87;;
58015;SDS011;43809;52.110;20.964;2023-09-18T09:01:31;10.80;;;8.25;;
58015;SDS011;43809;52.110;20.964;2023-09-18T09:03:43;9.23;;;8.18;;
58015;SDS011;43809;52.110;20.964;2023-09-18T09:05:45;8.48;;;7.57;;
58015;SDS011;43809;52.110;20.964;2023-09-18T09:07:46;8.05;;;7.25;;
58015;SDS011;43809;52.110;20.964;2023-09-18T09:09:47;7.97;;;7.25;;
58015;SDS011;43809;52.110;20.964;2023-09-18T09:11:48;8.35;;;7.55;;
58015;SDS011;43809;52.110;20.964;2023-09-18T09:14:08;9.13;;;7.88;;
58015;SDS011;43809;52.110;20.964;2023-09-18T09:16:10;8.13;;;7.43;;
58015;SDS011;43809;52.110;20.964;2023-09-18T09:18:11;8.30;;;7.50;;
58015;SDS011;43809;52.110;20.964;2023-09-18T09:20:13;7.77;;;6.67;;
58015;SDS011;43809;52.110;20.964;2023-09-18T09:22:20;7.72;;;6.90;;
58015;SDS011;43809;52.110;20.964;2023-09-18T09:24:35;7.30;;;6.70;;
58015;SDS011;43809;52.110;20.964;2023-09-18T09:26:36;8.25;;;7.03;;
58015;SDS011;43809;52.110;20.964;2023-09-18T09:28:43;7.33;;;6.63;;
58015;SDS011;43809;52.110;20.964;2023-09-18T09:30:44;8.27;;;7.43;;
58015;SDS011;43809;52.110;20.964;2023-09-18T09:32:47;7.65;;;6.95;;
58015;SDS011;43809;52.110;20.964;2023-09-18T09:34:48;8.10;;;6.63;;
58015;SDS011;43809;52.110;20.964;2023-09-18T09:36:55;7.40;;;6.70;;
58015;SDS011;43809;52.110;20.964;2023-09-18T09:38:56;7.68;;;6.63;;
58015;SDS011;43809;52.110;20.964;2023-09-18T09:40:58;8.07;;;7.28;;
58015;SDS011;43809;52.110;20.964;2023-09-18T09:43:02;7.53;;;6.70;;
58015;SDS011;43809;52.110;20.964;2023-09-18T09:45:11;6.63;;;5.93;;
58015;SDS011;43809;52.110;20.964;2023-09-18T09:47:13;7.18;;;5.88;;
58015;SDS011;43809;52.110;20.964;2023-09-18T09:49:14;6.20;;;5.70;;
58015;SDS011;43809;52.110;20.964;2023-09-18T09:51:34;6.45;;;5.53;;
58015;SDS011;43809;52.110;20.964;2023-09-18T09:53:42;5.90;;;5.35;;
58015;SDS011;43809;52.110;20.964;2023-09-18T09:55:44;7.32;;;6.63;;
58015;SDS011;43809;52.110;20.964;2023-09-18T09:57:56;6.70;;;5.97;;
58015;SDS011;43809;52.110;20.964;2023-09-18T10:00:04;5.65;;;5.15;;
58015;SDS011;43809;52.110;20.964;2023-09-18T10:02:43;5.55;;;5.05;;
58015;SDS011;43809;52.110;20.964;2023-09-18T10:04:44;6.32;;;4.95;;
58015;SDS011;43809;52.110;20.964;2023-09-18T10:06:50;5.80;;;5.30;;
58015;SDS011;43809;52.110;20.964;2023-09-18T10:08:57;6.20;;;5.10;;
58015;SDS011;43809;52.110;20.964;2023-09-18T10:11:00;5.30;;;4.80;;
58015;SDS011;43809;52.110;20.964;2023-09-18T10:13:07;5.25;;;4.75;;
58015;SDS011;43809;52.110;20.964;2023-09-18T10:15:08;5.95;;;4.88;;
58015;SDS011;43809;52.110;20.964;2023-09-18T10:17:16;5.47;;;4.97;;
58015;SDS011;43809;52.110;20.964;2023-09-18T10:21:26;5.38;;;4.88;;
58015;SDS011;43809;52.110;20.964;2023-09-18T10:23:44;5.70;;;5.20;;
58015;SDS011;43809;52.110;20.964;2023-09-18T10:28:14;5.30;;;4.80;;
58015;SDS011;43809;52.110;20.964;2023-09-18T10:30:16;6.78;;;5.60;;
58015;SDS011;43809;52.110;20.964;2023-09-18T10:32:18;5.78;;;5.15;;
58015;SDS011;43809;52.110;20.964;2023-09-18T10:34:21;5.32;;;4.82;;
58015;SDS011;43809;52.110;20.964;2023-09-18T10:38:23;5.70;;;5.20;;
58015;SDS011;43809;52.110;20.964;2023-09-18T10:40:25;5.70;;;5.03;;
58015;SDS011;43809;52.110;20.964;2023-09-18T10:42:28;5.13;;;4.43;;
58015;SDS011;43809;52.110;20.964;2023-09-18T10:44:31;4.90;;;4.50;;
58015;SDS011;43809;52.110;20.964;2023-09-18T10:46:32;5.83;;;4.60;;
58015;SDS011;43809;52.110;20.964;2023-09-18T10:48:32;5.60;;;5.00;;
58015;SDS011;43809;52.110;20.964;2023-09-18T10:50:33;5.43;;;4.93;;
58015;SDS011;43809;52.110;20.964;2023-09-18T10:54:54;5.35;;;4.95;;
58015;SDS011;43809;52.110;20.964;2023-09-18T10:56:57;4.68;;;4.20;;
58015;SDS011;43809;52.110;20.964;2023-09-18T10:59:00;5.22;;;4.72;;
58015;SDS011;43809;52.110;20.964;2023-09-18T11:01:01;5.78;;;5.25;;
58015;SDS011;43809;52.110;20.964;2023-09-18T11:03:09;5.38;;;4.88;;
58015;SDS011;43809;52.110;20.964;2023-09-18T11:05:10;5.05;;;4.55;;
58015;SDS011;43809;52.110;20.964;2023-09-18T11:07:21;6.00;;;5.45;;
58015;SDS011;43809;52.110;20.964;2023-09-18T11:09:23;4.72;;;4.32;;
58015;SDS011;43809;52.110;20.964;2023-09-18T11:13:38;5.90;;;5.30;;
58015;SDS011;43809;52.110;20.964;2023-09-18T11:15:39;7.55;;;5.63;;
58015;SDS011;43809;52.110;20.964;2023-09-18T11:17:40;6.15;;;5.63;;
58015;SDS011;43809;52.110;20.964;2023-09-18T11:19:41;6.57;;;5.43;;
58015;SDS011;43809;52.110;20.964;2023-09-18T11:23:43;6.13;;;5.53;;
58015;SDS011;43809;52.110;20.964;2023-09-18T11:25:44;5.43;;;4.93;;
58015;SDS011;43809;52.110;20.964;2023-09-18T11:27:52;5.80;;;5.25;;
58015;SDS011;43809;52.110;20.964;2023-09-18T11:29:57;6.22;;;5.45;;
58015;SDS011;43809;52.110;20.964;2023-09-18T11:31:59;8.10;;;6.18;;
58015;SDS011;43809;52.110;20.964;2023-09-18T11:34:03;7.25;;;6.30;;
58015;SDS011;43809;52.110;20.964;2023-09-18T11:36:12;6.68;;;6.03;;
58015;SDS011;43809;52.110;20.964;2023-09-18T11:38:15;6.57;;;5.97;;
58015;SDS011;43809;52.110;20.964;2023-09-18T11:40:29;6.85;;;6.15;;
58015;SDS011;43809;52.110;20.964;2023-09-18T11:42:34;6.65;;;6.05;;
58015;SDS011;43809;52.110;20.964;2023-09-18T11:44:35;6.22;;;5.63;;
58015;SDS011;43809;52.110;20.964;2023-09-18T11:46:44;7.03;;;5.63;;
58015;SDS011;43809;52.110;20.964;2023-09-18T11:48:46;7.45;;;6.75;;
58015;SDS011;43809;52.110;20.964;2023-09-18T11:50:47;7.53;;;6.68;;
58015;SDS011;43809;52.110;20.964;2023-09-18T11:52:51;7.07;;;6.43;;
58015;SDS011;43809;52.110;20.964;2023-09-18T11:54:53;6.88;;;6.28;;
58015;SDS011;43809;52.110;20.964;2023-09-18T11:56:55;6.60;;;6.00;;
58015;SDS011;43809;52.110;20.964;2023-09-18T11:58:55;7.18;;;6.43;;
58015;SDS011;43809;52.110;20.964;2023-09-18T12:00:56;6.90;;;6.30;;
58015;SDS011;43809;52.110;20.964;2023-09-18T12:02:57;9.67;;;6.33;;
58015;SDS011;43809;52.110;20.964;2023-09-18T12:04:58;6.43;;;5.82;;
58015;SDS011;43809;52.110;20.964;2023-09-18T12:06:59;7.22;;;6.53;;
58015;SDS011;43809;52.110;20.964;2023-09-18T12:09:00;6.80;;;6.20;;
58015;SDS011;43809;52.110;20.964;2023-09-18T12:11:04;7.53;;;6.40;;
58015;SDS011;43809;52.110;20.964;2023-09-18T12:13:08;6.18;;;5.60;;
58015;SDS011;43809;52.110;20.964;2023-09-18T12:15:17;6.22;;;5.63;;
58015;SDS011;43809;52.110;20.964;2023-09-18T12:17:18;6.57;;;5.88;;
58015;SDS011;43809;52.110;20.964;2023-09-18T12:19:19;6.18;;;5.50;;
58015;SDS011;43809;52.110;20.964;2023-09-18T12:21:20;7.32;;;5.90;;
58015;SDS011;43809;52.110;20.964;2023-09-18T12:25:46;8.25;;;6.30;;
58015;SDS011;43809;52.110;20.964;2023-09-18T12:27:51;6.72;;;6.10;;
58015;SDS011;43809;52.110;20.964;2023-09-18T12:29:51;7.55;;;6.85;;
58015;SDS011;43809;52.110;20.964;2023-09-18T12:31:52;8.75;;;7.28;;
58015;SDS011;43809;52.110;20.964;2023-09-18T12:33:53;7.40;;;6.53;;
58015;SDS011;43809;52.110;20.964;2023-09-18T12:35:54;7.72;;;6.97;;
58015;SDS011;43809;52.110;20.964;2023-09-18T12:37:55;7.43;;;6.72;;
58015;SDS011;43809;52.110;20.964;2023-09-18T12:39:55;7.95;;;7.15;;
58015;SDS011;43809;52.110;20.964;2023-09-18T12:41:56;7.75;;;6.95;;
58015;SDS011;43809;52.110;20.964;2023-09-18T12:43:57;7.43;;;6.73;;
58015;SDS011;43809;52.110;20.964;2023-09-18T12:46:00;7.43;;;6.70;;
58015;SDS011;43809;52.110;20.964;2023-09-18T12:48:02;8.63;;;7.82;;
58015;SDS011;43809;52.110;20.964;2023-09-18T12:50:09;8.00;;;7.30;;
58015;SDS011;43809;52.110;20.964;2023-09-18T12:52:11;11.65;;;7.60;;
58015;SDS011;43809;52.110;20.964;2023-09-18T12:54:14;7.90;;;7.10;;
58015;SDS011;43809;52.110;20.964;2023-09-18T12:56:16;8.15;;;7.35;;
58015;SDS011;43809;52.110;20.964;2023-09-18T13:00:24;7.70;;;6.93;;
58015;SDS011;43809;52.110;20.964;2023-09-18T13:02:27;7.07;;;6.47;;
58015;SDS011;43809;52.110;20.964;2023-09-18T13:04:27;7.18;;;6.50;;
58015;SDS011;43809;52.110;20.964;2023-09-18T13:06:28;7.18;;;6.47;;